sensor_id;sensor_type;location;lat;lon;timestamp;P1;durP1;ratioP1;P2;durP2;ratioP2
41705;SDS011;27385;51.096;17.190;2022-10-31T00:00:12;35.30;;;15.60;;
41705;SDS011;27385;51.096;17.190;2022-10-31T00:03:04;31.90;;;14.80;;
41705;SDS011;27385;51.096;17.190;2022-10-31T00:05:35;33.90;;;15.20;;
41705;SDS011;27385;51.096;17.190;2022-10-31T00:08:09;33.30;;;14.90;;
41705;SDS011;27385;51.096;17.190;2022-10-31T00:10:40;39.60;;;17.20;;
41705;SDS011;27385;51.096;17.190;2022-10-31T00:13:15;32.40;;;13.70;;
41705;SDS011;27385;51.096;17.190;2022-10-31T00:15:46;31.60;;;15.20;;
41705;SDS011;27385;51.096;17.190;2022-10-31T00:18:17;27.50;;;12.70;;
41705;SDS011;27385;51.096;17.190;2022-10-31T00:20:48;37.50;;;14.40;;
41705;SDS011;27385;51.096;17.190;2022-10-31T00:23:27;31.00;;;14.00;;
41705;SDS011;27385;51.096;17.190;2022-10-31T00:26:01;30.50;;;14.00;;
41705;SDS011;27385;51.096;17.190;2022-10-31T00:28:33;34.30;;;14.90;;
41705;SDS011;27385;51.096;17.190;2022-10-31T00:31:05;28.40;;;13.00;;
41705;SDS011;27385;51.096;17.190;2022-10-31T00:33:37;30.00;;;14.50;;
41705;SDS011;27385;51.096;17.190;2022-10-31T00:36:11;32.40;;;14.80;;
41705;SDS011;27385;51.096;17.190;2022-10-31T00:38:44;33.30;;;14.70;;
41705;SDS011;27385;51.096;17.190;2022-10-31T00:41:16;32.30;;;13.90;;
41705;SDS011;27385;51.096;17.190;2022-10-31T00:43:47;32.00;;;14.50;;
41705;SDS011;27385;51.096;17.190;2022-10-31T00:46:19;32.20;;;14.10;;
41705;SDS011;27385;51.096;17.190;2022-10-31T00:48:50;30.40;;;14.00;;
41705;SDS011;27385;51.096;17.190;2022-10-31T00:51:21;33.00;;;13.90;;
41705;SDS011;27385;51.096;17.190;2022-10-31T00:53:52;37.30;;;15.10;;
41705;SDS011;27385;51.096;17.190;2022-10-31T00:56:23;28.10;;;13.10;;
41705;SDS011;27385;51.096;17.190;2022-10-31T00:58:56;29.80;;;12.60;;
41705;SDS011;27385;51.096;17.190;2022-10-31T01:01:27;28.10;;;12.70;;
41705;SDS011;27385;51.096;17.190;2022-10-31T01:03:58;31.20;;;14.10;;
41705;SDS011;27385;51.096;17.190;2022-10-31T01:06:29;32.40;;;13.00;;
41705;SDS011;27385;51.096;17.190;2022-10-31T01:09:00;29.90;;;14.20;;
41705;SDS011;27385;51.096;17.190;2022-10-31T01:11:32;30.10;;;12.70;;
41705;SDS011;27385;51.096;17.190;2022-10-31T01:14:04;36.20;;;15.80;;
41705;SDS011;27385;51.096;17.190;2022-10-31T01:16:35;33.30;;;14.20;;
41705;SDS011;27385;51.096;17.190;2022-10-31T01:19:07;27.20;;;13.80;;
41705;SDS011;27385;51.096;17.190;2022-10-31T01:21:38;29.50;;;14.70;;
41705;SDS011;27385;51.096;17.190;2022-10-31T01:24:09;30.00;;;14.40;;
41705;SDS011;27385;51.096;17.190;2022-10-31T01:26:41;37.40;;;14.80;;
41705;SDS011;27385;51.096;17.190;2022-10-31T01:29:12;35.50;;;15.20;;
41705;SDS011;27385;51.096;17.190;2022-10-31T01:31:43;34.50;;;15.00;;
41705;SDS011;27385;51.096;17.190;2022-10-31T01:34:16;34.00;;;16.70;;
41705;SDS011;27385;51.096;17.190;2022-10-31T01:36:47;33.80;;;16.60;;
41705;SDS011;27385;51.096;17.190;2022-10-31T01:39:19;33.70;;;15.70;;
41705;SDS011;27385;51.096;17.190;2022-10-31T01:41:52;38.10;;;15.80;;
41705;SDS011;27385;51.096;17.190;2022-10-31T01:47:29;30.80;;;15.10;;
41705;SDS011;27385;51.096;17.190;2022-10-31T01:50:13;32.80;;;14.10;;
41705;SDS011;27385;51.096;17.190;2022-10-31T01:52:53;32.80;;;13.60;;
41705;SDS011;27385;51.096;17.190;2022-10-31T01:55:24;32.20;;;14.20;;
41705;SDS011;27385;51.096;17.190;2022-10-31T01:57:59;29.60;;;12.40;;
41705;SDS011;27385;51.096;17.190;2022-10-31T02:00:35;31.20;;;13.30;;
41705;SDS011;27385;51.096;17.190;2022-10-31T02:03:07;27.10;;;12.50;;
41705;SDS011;27385;51.096;17.190;2022-10-31T02:05:38;31.70;;;12.50;;
41705;SDS011;27385;51.096;17.190;2022-10-31T02:08:11;34.60;;;12.30;;
41705;SDS011;27385;51.096;17.190;2022-10-31T02:10:47;24.50;;;10.80;;
41705;SDS011;27385;51.096;17.190;2022-10-31T02:13:19;31.50;;;11.90;;
41705;SDS011;27385;51.096;17.190;2022-10-31T02:15:52;26.50;;;11.40;;
41705;SDS011;27385;51.096;17.190;2022-10-31T02:18:26;30.80;;;11.70;;
41705;SDS011;27385;51.096;17.190;2022-10-31T02:21:01;29.40;;;11.70;;
41705;SDS011;27385;51.096;17.190;2022-10-31T02:30:03;27.00;;;11.40;;
41705;SDS011;27385;51.096;17.190;2022-10-31T02:32:50;25.60;;;11.60;;
41705;SDS011;27385;51.096;17.190;2022-10-31T02:38:09;28.30;;;10.80;;
41705;SDS011;27385;51.096;17.190;2022-10-31T02:40:51;25.80;;;11.70;;
41705;SDS011;27385;51.096;17.190;2022-10-31T02:43:31;27.10;;;11.40;;
41705;SDS011;27385;51.096;17.190;2022-10-31T02:46:10;25.50;;;9.70;;
41705;SDS011;27385;51.096;17.190;2022-10-31T02:48:49;25.70;;;11.00;;
41705;SDS011;27385;51.096;17.190;2022-10-31T02:51:23;22.10;;;10.40;;
41705;SDS011;27385;51.096;17.190;2022-10-31T02:53:55;26.60;;;10.40;;
41705;SDS011;27385;51.096;17.190;2022-10-31T02:56:26;27.50;;;10.80;;
41705;SDS011;27385;51.096;17.190;2022-10-31T02:58:58;27.00;;;10.50;;
41705;SDS011;27385;51.096;17.190;2022-10-31T03:01:57;25.30;;;10.60;;
41705;SDS011;27385;51.096;17.190;2022-10-31T03:04:45;28.30;;;10.00;;
41705;SDS011;27385;51.096;17.190;2022-10-31T03:07:30;22.50;;;9.90;;
41705;SDS011;27385;51.096;17.190;2022-10-31T03:10:12;26.90;;;9.70;;
41705;SDS011;27385;51.096;17.190;2022-10-31T03:12:53;22.40;;;9.60;;
41705;SDS011;27385;51.096;17.190;2022-10-31T03:15:35;23.80;;;10.20;;
41705;SDS011;27385;51.096;17.190;2022-10-31T03:18:11;25.10;;;10.20;;
41705;SDS011;27385;51.096;17.190;2022-10-31T03:20:50;25.80;;;11.40;;
41705;SDS011;27385;51.096;17.190;2022-10-31T03:23:26;25.70;;;10.60;;
41705;SDS011;27385;51.096;17.190;2022-10-31T03:25:59;23.40;;;10.30;;
41705;SDS011;27385;51.096;17.190;2022-10-31T03:28:36;23.10;;;9.30;;
41705;SDS011;27385;51.096;17.190;2022-10-31T03:31:11;27.10;;;10.30;;
41705;SDS011;27385;51.096;17.190;2022-10-31T03:33:46;24.70;;;9.70;;
41705;SDS011;27385;51.096;17.190;2022-10-31T03:36:20;24.10;;;9.80;;
41705;SDS011;27385;51.096;17.190;2022-10-31T03:38:52;22.20;;;9.50;;
41705;SDS011;27385;51.096;17.190;2022-10-31T03:41:25;26.40;;;10.30;;
41705;SDS011;27385;51.096;17.190;2022-10-31T03:44:03;22.90;;;8.50;;
41705;SDS011;27385;51.096;17.190;2022-10-31T03:46:40;23.10;;;9.80;;
41705;SDS011;27385;51.096;17.190;2022-10-31T03:49:13;25.80;;;10.40;;
41705;SDS011;27385;51.096;17.190;2022-10-31T03:51:46;26.30;;;9.40;;
41705;SDS011;27385;51.096;17.190;2022-10-31T03:54:25;24.70;;;9.80;;
41705;SDS011;27385;51.096;17.190;2022-10-31T03:57:02;24.10;;;9.50;;
41705;SDS011;27385;51.096;17.190;2022-10-31T03:59:36;23.90;;;8.90;;
41705;SDS011;27385;51.096;17.190;2022-10-31T04:02:12;24.80;;;9.40;;
41705;SDS011;27385;51.096;17.190;2022-10-31T04:04:47;22.00;;;9.00;;
41705;SDS011;27385;51.096;17.190;2022-10-31T04:07:20;21.30;;;8.80;;
41705;SDS011;27385;51.096;17.190;2022-10-31T04:09:54;23.90;;;9.80;;
41705;SDS011;27385;51.096;17.190;2022-10-31T04:12:29;25.20;;;8.70;;
41705;SDS011;27385;51.096;17.190;2022-10-31T04:15:04;33.30;;;10.60;;
41705;SDS011;27385;51.096;17.190;2022-10-31T04:17:39;22.90;;;9.70;;
41705;SDS011;27385;51.096;17.190;2022-10-31T04:20:16;20.70;;;8.90;;
41705;SDS011;27385;51.096;17.190;2022-10-31T04:22:47;23.70;;;9.80;;
41705;SDS011;27385;51.096;17.190;2022-10-31T04:25:18;26.10;;;9.50;;
41705;SDS011;27385;51.096;17.190;2022-10-31T04:27:49;25.30;;;9.50;;
41705;SDS011;27385;51.096;17.190;2022-10-31T04:30:20;22.60;;;9.00;;
41705;SDS011;27385;51.096;17.190;2022-10-31T04:32:52;23.20;;;10.00;;
41705;SDS011;27385;51.096;17.190;2022-10-31T04:35:24;26.50;;;9.80;;
41705;SDS011;27385;51.096;17.190;2022-10-31T04:37:55;24.50;;;9.60;;
41705;SDS011;27385;51.096;17.190;2022-10-31T04:40:27;27.40;;;10.40;;
41705;SDS011;27385;51.096;17.190;2022-10-31T04:42:58;28.70;;;10.00;;
41705;SDS011;27385;51.096;17.190;2022-10-31T04:45:30;25.90;;;10.50;;
41705;SDS011;27385;51.096;17.190;2022-10-31T04:48:02;25.80;;;10.40;;
41705;SDS011;27385;51.096;17.190;2022-10-31T04:50:35;25.00;;;9.50;;
41705;SDS011;27385;51.096;17.190;2022-10-31T04:53:06;27.50;;;11.10;;
41705;SDS011;27385;51.096;17.190;2022-10-31T04:55:37;25.30;;;10.20;;
41705;SDS011;27385;51.096;17.190;2022-10-31T04:58:08;26.50;;;10.20;;
41705;SDS011;27385;51.096;17.190;2022-10-31T05:00:40;25.90;;;10.60;;
41705;SDS011;27385;51.096;17.190;2022-10-31T05:03:11;27.70;;;11.30;;
41705;SDS011;27385;51.096;17.190;2022-10-31T05:05:42;27.40;;;10.50;;
41705;SDS011;27385;51.096;17.190;2022-10-31T05:08:14;22.60;;;8.70;;
41705;SDS011;27385;51.096;17.190;2022-10-31T05:10:45;21.50;;;9.20;;
41705;SDS011;27385;51.096;17.190;2022-10-31T05:13:16;26.00;;;10.10;;
41705;SDS011;27385;51.096;17.190;2022-10-31T05:15:47;24.40;;;9.80;;
41705;SDS011;27385;51.096;17.190;2022-10-31T05:18:20;23.00;;;9.20;;
41705;SDS011;27385;51.096;17.190;2022-10-31T05:20:51;25.70;;;10.20;;
41705;SDS011;27385;51.096;17.190;2022-10-31T05:23:23;27.10;;;10.00;;
41705;SDS011;27385;51.096;17.190;2022-10-31T05:25:54;24.50;;;8.60;;
41705;SDS011;27385;51.096;17.190;2022-10-31T05:28:26;24.30;;;8.90;;
41705;SDS011;27385;51.096;17.190;2022-10-31T05:30:57;26.00;;;8.90;;
41705;SDS011;27385;51.096;17.190;2022-10-31T05:33:28;27.10;;;9.30;;
41705;SDS011;27385;51.096;17.190;2022-10-31T05:36:00;23.80;;;9.60;;
41705;SDS011;27385;51.096;17.190;2022-10-31T05:38:31;26.20;;;9.30;;
41705;SDS011;27385;51.096;17.190;2022-10-31T05:41:02;24.50;;;8.10;;
41705;SDS011;27385;51.096;17.190;2022-10-31T05:43:33;24.90;;;8.70;;
41705;SDS011;27385;51.096;17.190;2022-10-31T05:46:06;25.80;;;8.40;;
41705;SDS011;27385;51.096;17.190;2022-10-31T05:48:38;26.10;;;8.70;;
41705;SDS011;27385;51.096;17.190;2022-10-31T05:51:09;23.80;;;8.70;;
41705;SDS011;27385;51.096;17.190;2022-10-31T05:53:41;24.80;;;8.70;;
41705;SDS011;27385;51.096;17.190;2022-10-31T05:56:13;22.80;;;8.30;;
41705;SDS011;27385;51.096;17.190;2022-10-31T05:58:44;21.10;;;8.80;;
41705;SDS011;27385;51.096;17.190;2022-10-31T06:01:15;20.00;;;8.70;;
41705;SDS011;27385;51.096;17.190;2022-10-31T06:03:47;28.60;;;10.40;;
41705;SDS011;27385;51.096;17.190;2022-10-31T06:06:19;25.00;;;8.80;;
41705;SDS011;27385;51.096;17.190;2022-10-31T06:08:50;25.10;;;9.90;;
41705;SDS011;27385;51.096;17.190;2022-10-31T06:11:21;23.20;;;8.80;;
41705;SDS011;27385;51.096;17.190;2022-10-31T06:13:53;22.50;;;8.70;;
41705;SDS011;27385;51.096;17.190;2022-10-31T06:16:24;25.30;;;8.90;;
41705;SDS011;27385;51.096;17.190;2022-10-31T06:18:56;24.50;;;9.30;;
41705;SDS011;27385;51.096;17.190;2022-10-31T06:21:27;25.20;;;8.20;;
41705;SDS011;27385;51.096;17.190;2022-10-31T06:23:58;23.60;;;8.70;;
41705;SDS011;27385;51.096;17.190;2022-10-31T06:26:30;27.10;;;10.10;;
41705;SDS011;27385;51.096;17.190;2022-10-31T06:29:01;28.60;;;9.60;;
41705;SDS011;27385;51.096;17.190;2022-10-31T06:31:33;26.40;;;9.60;;
41705;SDS011;27385;51.096;17.190;2022-10-31T06:34:04;28.10;;;10.50;;
41705;SDS011;27385;51.096;17.190;2022-10-31T06:36:35;24.60;;;7.80;;
41705;SDS011;27385;51.096;17.190;2022-10-31T06:39:08;26.50;;;10.00;;
41705;SDS011;27385;51.096;17.190;2022-10-31T06:41:40;26.30;;;10.80;;
41705;SDS011;27385;51.096;17.190;2022-10-31T06:44:11;25.20;;;9.20;;
41705;SDS011;27385;51.096;17.190;2022-10-31T06:46:42;25.40;;;9.90;;
41705;SDS011;27385;51.096;17.190;2022-10-31T06:49:15;25.40;;;9.10;;
41705;SDS011;27385;51.096;17.190;2022-10-31T06:51:49;24.70;;;8.70;;
41705;SDS011;27385;51.096;17.190;2022-10-31T06:54:22;29.00;;;10.50;;
41705;SDS011;27385;51.096;17.190;2022-10-31T06:56:53;29.30;;;9.90;;
41705;SDS011;27385;51.096;17.190;2022-10-31T06:59:24;30.90;;;11.70;;
41705;SDS011;27385;51.096;17.190;2022-10-31T07:01:57;24.00;;;10.30;;
41705;SDS011;27385;51.096;17.190;2022-10-31T07:04:28;38.80;;;11.90;;
41705;SDS011;27385;51.096;17.190;2022-10-31T07:06:59;32.50;;;11.90;;
41705;SDS011;27385;51.096;17.190;2022-10-31T07:09:31;33.70;;;12.00;;
41705;SDS011;27385;51.096;17.190;2022-10-31T07:12:03;28.70;;;10.90;;
41705;SDS011;27385;51.096;17.190;2022-10-31T07:14:34;27.20;;;11.30;;
41705;SDS011;27385;51.096;17.190;2022-10-31T07:17:05;30.00;;;11.00;;
41705;SDS011;27385;51.096;17.190;2022-10-31T07:19:37;31.30;;;13.20;;
41705;SDS011;27385;51.096;17.190;2022-10-31T07:22:08;26.50;;;10.20;;
41705;SDS011;27385;51.096;17.190;2022-10-31T07:24:40;31.30;;;12.30;;
41705;SDS011;27385;51.096;17.190;2022-10-31T07:27:11;36.80;;;11.80;;
41705;SDS011;27385;51.096;17.190;2022-10-31T07:29:44;25.10;;;11.60;;
41705;SDS011;27385;51.096;17.190;2022-10-31T07:32:16;28.60;;;11.50;;
41705;SDS011;27385;51.096;17.190;2022-10-31T07:34:48;29.90;;;10.80;;
41705;SDS011;27385;51.096;17.190;2022-10-31T07:37:19;30.50;;;11.90;;
41705;SDS011;27385;51.096;17.190;2022-10-31T07:39:51;33.40;;;11.90;;
41705;SDS011;27385;51.096;17.190;2022-10-31T07:42:22;30.30;;;12.10;;
41705;SDS011;27385;51.096;17.190;2022-10-31T07:44:53;34.90;;;11.00;;
41705;SDS011;27385;51.096;17.190;2022-10-31T07:47:25;28.00;;;10.50;;
41705;SDS011;27385;51.096;17.190;2022-10-31T07:49:56;24.90;;;10.90;;
41705;SDS011;27385;51.096;17.190;2022-10-31T07:52:28;33.90;;;12.40;;
41705;SDS011;27385;51.096;17.190;2022-10-31T07:54:59;31.80;;;11.00;;
41705;SDS011;27385;51.096;17.190;2022-10-31T07:57:30;26.20;;;11.00;;
41705;SDS011;27385;51.096;17.190;2022-10-31T08:00:02;33.20;;;11.70;;
41705;SDS011;27385;51.096;17.190;2022-10-31T08:02:34;28.40;;;11.30;;
41705;SDS011;27385;51.096;17.190;2022-10-31T08:05:06;28.20;;;10.60;;
41705;SDS011;27385;51.096;17.190;2022-10-31T08:07:38;30.50;;;10.70;;
41705;SDS011;27385;51.096;17.190;2022-10-31T08:10:09;29.90;;;10.70;;
41705;SDS011;27385;51.096;17.190;2022-10-31T08:12:41;30.40;;;11.10;;
41705;SDS011;27385;51.096;17.190;2022-10-31T08:15:12;29.40;;;10.10;;
41705;SDS011;27385;51.096;17.190;2022-10-31T08:17:44;27.50;;;10.50;;
41705;SDS011;27385;51.096;17.190;2022-10-31T08:20:16;32.50;;;9.30;;
41705;SDS011;27385;51.096;17.190;2022-10-31T08:22:56;30.10;;;9.80;;
41705;SDS011;27385;51.096;17.190;2022-10-31T08:25:30;24.50;;;8.70;;
41705;SDS011;27385;51.096;17.190;2022-10-31T08:28:02;22.60;;;7.90;;
41705;SDS011;27385;51.096;17.190;2022-10-31T08:30:34;24.80;;;7.00;;
41705;SDS011;27385;51.096;17.190;2022-10-31T08:33:09;20.70;;;7.90;;
41705;SDS011;27385;51.096;17.190;2022-10-31T08:35:42;23.60;;;8.60;;
41705;SDS011;27385;51.096;17.190;2022-10-31T08:38:13;25.60;;;9.00;;
41705;SDS011;27385;51.096;17.190;2022-10-31T08:40:47;27.10;;;8.00;;
41705;SDS011;27385;51.096;17.190;2022-10-31T08:43:18;25.70;;;7.00;;
41705;SDS011;27385;51.096;17.190;2022-10-31T08:45:50;23.40;;;6.40;;
41705;SDS011;27385;51.096;17.190;2022-10-31T08:48:23;20.00;;;6.00;;
41705;SDS011;27385;51.096;17.190;2022-10-31T08:50:55;20.20;;;6.30;;
41705;SDS011;27385;51.096;17.190;2022-10-31T08:53:28;21.40;;;6.90;;
41705;SDS011;27385;51.096;17.190;2022-10-31T08:56:00;25.00;;;7.40;;
41705;SDS011;27385;51.096;17.190;2022-10-31T08:58:31;24.30;;;7.30;;
41705;SDS011;27385;51.096;17.190;2022-10-31T09:01:03;21.80;;;6.30;;
41705;SDS011;27385;51.096;17.190;2022-10-31T09:03:34;27.30;;;6.40;;
41705;SDS011;27385;51.096;17.190;2022-10-31T09:06:06;26.90;;;7.30;;
41705;SDS011;27385;51.096;17.190;2022-10-31T09:08:38;21.70;;;7.10;;
41705;SDS011;27385;51.096;17.190;2022-10-31T09:11:10;25.80;;;6.40;;
41705;SDS011;27385;51.096;17.190;2022-10-31T09:13:42;21.80;;;6.50;;
41705;SDS011;27385;51.096;17.190;2022-10-31T09:16:13;20.30;;;5.70;;
41705;SDS011;27385;51.096;17.190;2022-10-31T09:18:45;22.80;;;6.90;;
41705;SDS011;27385;51.096;17.190;2022-10-31T09:21:17;21.30;;;6.00;;
41705;SDS011;27385;51.096;17.190;2022-10-31T09:23:48;18.30;;;5.50;;
41705;SDS011;27385;51.096;17.190;2022-10-31T09:26:22;21.30;;;4.50;;
41705;SDS011;27385;51.096;17.190;2022-10-31T09:28:53;24.80;;;5.00;;
41705;SDS011;27385;51.096;17.190;2022-10-31T09:31:25;19.40;;;4.90;;
41705;SDS011;27385;51.096;17.190;2022-10-31T09:33:57;17.80;;;4.50;;
41705;SDS011;27385;51.096;17.190;2022-10-31T09:36:28;18.90;;;5.80;;
41705;SDS011;27385;51.096;17.190;2022-10-31T09:39:00;21.00;;;6.20;;
41705;SDS011;27385;51.096;17.190;2022-10-31T09:41:34;18.70;;;5.30;;
41705;SDS011;27385;51.096;17.190;2022-10-31T09:44:21;23.90;;;6.10;;
41705;SDS011;27385;51.096;17.190;2022-10-31T09:47:00;24.20;;;5.30;;
41705;SDS011;27385;51.096;17.190;2022-10-31T09:49:52;18.80;;;5.30;;
41705;SDS011;27385;51.096;17.190;2022-10-31T09:52:31;16.60;;;3.90;;
41705;SDS011;27385;51.096;17.190;2022-10-31T09:55:08;15.70;;;5.00;;
41705;SDS011;27385;51.096;17.190;2022-10-31T09:57:46;20.40;;;4.10;;
41705;SDS011;27385;51.096;17.190;2022-10-31T10:00:20;27.30;;;4.30;;
41705;SDS011;27385;51.096;17.190;2022-10-31T10:02:53;20.30;;;4.10;;
41705;SDS011;27385;51.096;17.190;2022-10-31T10:05:32;17.70;;;4.80;;
41705;SDS011;27385;51.096;17.190;2022-10-31T10:08:12;12.10;;;3.30;;
41705;SDS011;27385;51.096;17.190;2022-10-31T10:10:49;15.50;;;4.00;;
41705;SDS011;27385;51.096;17.190;2022-10-31T10:13:38;14.40;;;4.10;;
41705;SDS011;27385;51.096;17.190;2022-10-31T10:16:30;20.20;;;4.40;;
41705;SDS011;27385;51.096;17.190;2022-10-31T10:19:14;14.30;;;3.60;;
41705;SDS011;27385;51.096;17.190;2022-10-31T10:21:57;18.60;;;4.40;;
41705;SDS011;27385;51.096;17.190;2022-10-31T10:24:43;18.50;;;3.60;;
41705;SDS011;27385;51.096;17.190;2022-10-31T10:30:13;17.70;;;3.60;;
41705;SDS011;27385;51.096;17.190;2022-10-31T10:32:49;15.20;;;3.70;;
41705;SDS011;27385;51.096;17.190;2022-10-31T10:35:24;16.20;;;3.80;;
41705;SDS011;27385;51.096;17.190;2022-10-31T10:38:00;14.80;;;3.70;;
41705;SDS011;27385;51.096;17.190;2022-10-31T10:40:39;15.80;;;3.60;;
41705;SDS011;27385;51.096;17.190;2022-10-31T10:43:17;18.40;;;3.10;;
41705;SDS011;27385;51.096;17.190;2022-10-31T10:45:53;18.00;;;3.00;;
41705;SDS011;27385;51.096;17.190;2022-10-31T10:48:51;14.30;;;2.80;;
41705;SDS011;27385;51.096;17.190;2022-10-31T10:51:31;11.90;;;2.90;;
41705;SDS011;27385;51.096;17.190;2022-10-31T10:57:27;16.70;;;2.50;;
41705;SDS011;27385;51.096;17.190;2022-10-31T11:00:14;17.40;;;3.30;;
41705;SDS011;27385;51.096;17.190;2022-10-31T11:02:49;15.80;;;3.30;;
41705;SDS011;27385;51.096;17.190;2022-10-31T11:05:33;17.60;;;2.70;;
41705;SDS011;27385;51.096;17.190;2022-10-31T11:08:06;11.60;;;2.00;;
41705;SDS011;27385;51.096;17.190;2022-10-31T11:10:38;15.00;;;3.00;;
41705;SDS011;27385;51.096;17.190;2022-10-31T11:13:20;16.20;;;2.70;;
41705;SDS011;27385;51.096;17.190;2022-10-31T11:15:56;18.10;;;2.40;;
41705;SDS011;27385;51.096;17.190;2022-10-31T11:18:31;16.50;;;3.20;;
41705;SDS011;27385;51.096;17.190;2022-10-31T11:21:04;16.40;;;2.80;;
41705;SDS011;27385;51.096;17.190;2022-10-31T11:23:48;19.80;;;3.10;;
41705;SDS011;27385;51.096;17.190;2022-10-31T11:26:20;13.90;;;2.70;;
41705;SDS011;27385;51.096;17.190;2022-10-31T11:28:57;16.00;;;2.70;;
41705;SDS011;27385;51.096;17.190;2022-10-31T11:31:31;22.20;;;3.10;;
41705;SDS011;27385;51.096;17.190;2022-10-31T11:34:05;13.70;;;2.70;;
41705;SDS011;27385;51.096;17.190;2022-10-31T11:36:44;12.60;;;2.50;;
41705;SDS011;27385;51.096;17.190;2022-10-31T11:39:17;21.60;;;3.60;;
41705;SDS011;27385;51.096;17.190;2022-10-31T11:41:52;14.50;;;2.30;;
41705;SDS011;27385;51.096;17.190;2022-10-31T11:44:31;15.20;;;3.40;;
41705;SDS011;27385;51.096;17.190;2022-10-31T11:47:09;10.70;;;2.20;;
41705;SDS011;27385;51.096;17.190;2022-10-31T11:49:44;18.50;;;3.90;;
41705;SDS011;27385;51.096;17.190;2022-10-31T11:52:19;18.80;;;3.30;;
41705;SDS011;27385;51.096;17.190;2022-10-31T11:54:55;16.40;;;3.10;;
41705;SDS011;27385;51.096;17.190;2022-10-31T11:57:29;14.50;;;2.90;;
41705;SDS011;27385;51.096;17.190;2022-10-31T12:00:03;17.70;;;3.10;;
41705;SDS011;27385;51.096;17.190;2022-10-31T12:02:49;13.30;;;3.00;;
41705;SDS011;27385;51.096;17.190;2022-10-31T12:05:33;12.30;;;2.70;;
41705;SDS011;27385;51.096;17.190;2022-10-31T12:08:07;15.10;;;2.70;;
41705;SDS011;27385;51.096;17.190;2022-10-31T12:10:43;17.30;;;2.80;;
41705;SDS011;27385;51.096;17.190;2022-10-31T12:13:30;13.90;;;2.20;;
41705;SDS011;27385;51.096;17.190;2022-10-31T12:16:08;11.40;;;2.40;;
41705;SDS011;27385;51.096;17.190;2022-10-31T12:18:53;18.90;;;2.90;;
41705;SDS011;27385;51.096;17.190;2022-10-31T12:21:47;14.50;;;2.30;;
41705;SDS011;27385;51.096;17.190;2022-10-31T12:24:32;13.60;;;2.50;;
41705;SDS011;27385;51.096;17.190;2022-10-31T12:27:16;16.20;;;2.70;;
41705;SDS011;27385;51.096;17.190;2022-10-31T12:30:07;11.90;;;2.30;;
41705;SDS011;27385;51.096;17.190;2022-10-31T12:32:52;11.50;;;2.50;;
41705;SDS011;27385;51.096;17.190;2022-10-31T12:35:36;15.20;;;2.40;;
41705;SDS011;27385;51.096;17.190;2022-10-31T12:38:22;12.30;;;2.50;;
41705;SDS011;27385;51.096;17.190;2022-10-31T12:41:19;12.20;;;2.30;;
41705;SDS011;27385;51.096;17.190;2022-10-31T12:44:00;21.10;;;3.30;;
41705;SDS011;27385;51.096;17.190;2022-10-31T12:46:41;15.70;;;3.10;;
41705;SDS011;27385;51.096;17.190;2022-10-31T12:49:31;11.40;;;2.40;;
41705;SDS011;27385;51.096;17.190;2022-10-31T12:52:22;14.70;;;2.30;;
41705;SDS011;27385;51.096;17.190;2022-10-31T12:55:08;11.40;;;2.30;;
41705;SDS011;27385;51.096;17.190;2022-10-31T12:57:47;13.40;;;2.00;;
41705;SDS011;27385;51.096;17.190;2022-10-31T13:00:21;16.00;;;2.90;;
41705;SDS011;27385;51.096;17.190;2022-10-31T13:02:55;15.30;;;2.20;;
41705;SDS011;27385;51.096;17.190;2022-10-31T13:05:36;13.30;;;2.40;;
41705;SDS011;27385;51.096;17.190;2022-10-31T13:08:10;14.50;;;2.70;;
41705;SDS011;27385;51.096;17.190;2022-10-31T13:10:46;12.60;;;2.50;;
41705;SDS011;27385;51.096;17.190;2022-10-31T13:13:23;11.50;;;2.00;;
41705;SDS011;27385;51.096;17.190;2022-10-31T13:15:57;12.90;;;2.70;;
41705;SDS011;27385;51.096;17.190;2022-10-31T13:18:44;22.10;;;3.30;;
41705;SDS011;27385;51.096;17.190;2022-10-31T13:21:20;15.10;;;2.70;;
41705;SDS011;27385;51.096;17.190;2022-10-31T13:23:53;12.60;;;2.20;;
41705;SDS011;27385;51.096;17.190;2022-10-31T13:26:31;13.40;;;2.40;;
41705;SDS011;27385;51.096;17.190;2022-10-31T13:29:09;20.60;;;2.90;;
41705;SDS011;27385;51.096;17.190;2022-10-31T13:31:47;12.60;;;2.90;;
41705;SDS011;27385;51.096;17.190;2022-10-31T13:34:20;10.80;;;2.10;;
41705;SDS011;27385;51.096;17.190;2022-10-31T13:37:01;15.30;;;2.90;;
41705;SDS011;27385;51.096;17.190;2022-10-31T13:39:47;19.00;;;2.70;;
41705;SDS011;27385;51.096;17.190;2022-10-31T13:42:34;12.20;;;2.50;;
41705;SDS011;27385;51.096;17.190;2022-10-31T13:45:15;16.40;;;2.50;;
41705;SDS011;27385;51.096;17.190;2022-10-31T13:48:00;11.10;;;1.90;;
41705;SDS011;27385;51.096;17.190;2022-10-31T13:50:56;17.00;;;2.70;;
41705;SDS011;27385;51.096;17.190;2022-10-31T13:53:36;11.60;;;2.20;;
41705;SDS011;27385;51.096;17.190;2022-10-31T13:56:20;10.50;;;2.30;;
41705;SDS011;27385;51.096;17.190;2022-10-31T14:01:51;13.00;;;3.00;;
41705;SDS011;27385;51.096;17.190;2022-10-31T14:04:25;25.90;;;4.40;;
41705;SDS011;27385;51.096;17.190;2022-10-31T14:07:06;10.20;;;2.00;;
41705;SDS011;27385;51.096;17.190;2022-10-31T14:09:41;18.50;;;2.20;;
41705;SDS011;27385;51.096;17.190;2022-10-31T14:12:26;14.70;;;2.20;;
41705;SDS011;27385;51.096;17.190;2022-10-31T14:15:02;11.30;;;1.90;;
41705;SDS011;27385;51.096;17.190;2022-10-31T14:17:46;13.00;;;3.30;;
41705;SDS011;27385;51.096;17.190;2022-10-31T14:20:26;12.80;;;2.50;;
41705;SDS011;27385;51.096;17.190;2022-10-31T14:23:24;14.70;;;3.10;;
41705;SDS011;27385;51.096;17.190;2022-10-31T14:26:29;12.50;;;2.90;;
41705;SDS011;27385;51.096;17.190;2022-10-31T14:29:21;13.70;;;2.40;;
41705;SDS011;27385;51.096;17.190;2022-10-31T14:32:01;19.00;;;2.60;;
41705;SDS011;27385;51.096;17.190;2022-10-31T14:34:39;13.30;;;3.10;;
41705;SDS011;27385;51.096;17.190;2022-10-31T14:37:27;15.90;;;2.60;;
41705;SDS011;27385;51.096;17.190;2022-10-31T14:40:10;13.50;;;2.50;;
41705;SDS011;27385;51.096;17.190;2022-10-31T14:46:02;14.70;;;2.30;;
41705;SDS011;27385;51.096;17.190;2022-10-31T14:48:50;16.00;;;3.00;;
41705;SDS011;27385;51.096;17.190;2022-10-31T14:51:42;13.40;;;2.40;;
41705;SDS011;27385;51.096;17.190;2022-10-31T14:54:17;14.70;;;2.50;;
41705;SDS011;27385;51.096;17.190;2022-10-31T14:56:56;12.80;;;2.60;;
41705;SDS011;27385;51.096;17.190;2022-10-31T14:59:33;15.10;;;2.20;;
41705;SDS011;27385;51.096;17.190;2022-10-31T15:02:11;13.70;;;3.10;;
41705;SDS011;27385;51.096;17.190;2022-10-31T15:04:47;14.30;;;2.40;;
41705;SDS011;27385;51.096;17.190;2022-10-31T15:07:21;11.40;;;2.80;;
41705;SDS011;27385;51.096;17.190;2022-10-31T15:09:57;12.40;;;2.20;;
41705;SDS011;27385;51.096;17.190;2022-10-31T15:12:31;12.50;;;2.40;;
41705;SDS011;27385;51.096;17.190;2022-10-31T15:15:13;18.20;;;3.00;;
41705;SDS011;27385;51.096;17.190;2022-10-31T15:17:49;14.40;;;3.00;;
41705;SDS011;27385;51.096;17.190;2022-10-31T15:20:25;13.30;;;3.10;;
41705;SDS011;27385;51.096;17.190;2022-10-31T15:22:58;11.70;;;2.90;;
41705;SDS011;27385;51.096;17.190;2022-10-31T15:25:32;16.60;;;2.80;;
41705;SDS011;27385;51.096;17.190;2022-10-31T15:28:12;15.70;;;4.00;;